Time;durP1;ratioP1;P1;durP2;ratioP2;P2;SDS_P1;SDS_P2;PMS_P1;PMS_P2;Temp;Humidity;BMP_temperature;BMP_pressure;BME280_temperature;BME280_humidity;BME280_pressure;Samples;Min_cycle;Max_cycle;Signal;HPM_P1;HPM_P2
2023/04/14 00:01:30;;;;;;;0.43;0.43;;;5.60;99.90;;;;;;5114986;28;20186;-79
2023/04/14 00:03:56;;;;;;;0.53;0.53;;;5.60;99.90;;;;;;5114530;28;20623;-81
2023/04/14 00:06:21;;;;;;;0.30;0.30;;;5.70;99.90;;;;;;5114778;28;20187;-81
2023/04/14 00:08:47;;;;;;;0.30;0.30;;;5.60;99.90;;;;;;5096151;28;20216;-77
2023/04/14 00:11:13;;;;;;;0.20;0.20;;;5.70;99.90;;;;;;5114606;28;20183;-81
2023/04/14 00:13:39;;;;;;;0.20;0.20;;;5.80;99.90;;;;;;5114460;28;20213;-77
2023/04/14 00:16:05;;;;;;;0.30;0.30;;;5.80;99.90;;;;;;5114415;28;20217;-76
2023/04/14 00:18:31;;;;;;;0.40;0.40;;;5.80;99.90;;;;;;5114351;28;20256;-77
2023/04/14 00:20:57;;;;;;;0.30;0.30;;;5.80;99.90;;;;;;5114749;28;20331;-76
2023/04/14 00:23:22;;;;;;;0.20;0.20;;;5.80;99.90;;;;;;5113971;28;20178;-76
2023/04/14 00:25:51;;;;;;;1.03;0.30;;;5.70;99.90;;;;;;5114407;28;20185;-78
2023/04/14 00:28:17;;;;;;;0.23;0.23;;;5.80;99.90;;;;;;5114371;28;20181;-76
2023/04/14 00:30:42;;;;;;;0.20;0.20;;;5.70;99.90;;;;;;5114353;28;20174;-78
2023/04/14 00:33:08;;;;;;;0.20;0.20;;;5.80;99.90;;;;;;5114234;28;20195;-78
2023/04/14 00:35:35;;;;;;;0.50;0.50;;;5.80;99.90;;;;;;5114110;28;20208;-78
2023/04/14 00:38:00;;;;;;;0.20;0.20;;;5.80;99.90;;;;;;5113923;28;20250;-76
2023/04/14 00:40:28;;;;;;;0.60;0.60;;;5.80;99.90;;;;;;5113793;28;20634;-79
2023/04/14 00:42:54;;;;;;;0.30;0.30;;;5.80;99.90;;;;;;5114000;28;20833;-78
2023/04/14 00:45:20;;;;;;;0.17;0.17;;;5.70;99.90;;;;;;5113748;28;20634;-78
2023/04/14 00:47:49;;;;;;;0.40;0.40;;;5.80;99.90;;;;;;5113944;28;20266;-77
2023/04/14 00:50:17;;;;;;;0.40;0.40;;;5.80;99.90;;;;;;5113645;28;20709;-76
2023/04/14 00:52:45;;;;;;;0.40;0.40;;;5.90;99.90;;;;;;5114852;28;20594;-77
2023/04/14 00:55:12;;;;;;;0.30;0.30;;;6.00;99.90;;;;;;5115285;28;20227;-77
2023/04/14 00:57:39;;;;;;;0.20;0.20;;;6.00;99.90;;;;;;5113850;28;20165;-79
2023/04/14 01:00:05;;;;;;;0.23;0.23;;;6.00;99.90;;;;;;5113398;28;20203;-78
2023/04/14 01:02:32;;;;;;;0.33;0.33;;;5.80;99.90;;;;;;5113648;28;20228;-75
2023/04/14 01:04:58;;;;;;;0.27;0.27;;;5.70;99.90;;;;;;5113259;28;20206;-77
2023/04/14 01:07:26;;;;;;;4.73;0.40;;;5.70;99.90;;;;;;5113536;28;20181;-77
2023/04/14 01:09:54;;;;;;;0.30;0.30;;;5.60;99.90;;;;;;5095059;28;20179;-78
2023/04/14 01:13:05;;;;;;;0.30;0.30;;;5.50;99.90;;;;;;5095240;28;20232;-77
2023/04/14 01:15:39;;;;;;;0.30;0.30;;;5.40;99.90;;;;;;5091317;28;20305;-79
2023/04/14 01:18:32;;;;;;;0.43;0.43;;;5.50;99.90;;;;;;5092940;28;20651;-78
2023/04/14 01:21:14;;;;;;;0.30;0.30;;;5.50;99.90;;;;;;5093060;28;20262;-75
2023/04/14 01:24:09;;;;;;;0.33;0.33;;;5.50;99.90;;;;;;5092847;28;20737;-78
2023/04/14 01:26:36;;;;;;;0.30;0.30;;;5.50;99.90;;;;;;5076098;28;20191;-77
2023/04/14 01:29:31;;;;;;;0.27;0.27;;;5.60;99.90;;;;;;5092625;28;20269;-77
2023/04/14 01:32:07;;;;;;;0.40;0.40;;;5.60;99.90;;;;;;5093542;28;20592;-80
2023/04/14 01:34:49;;;;;;;0.30;0.30;;;5.50;99.90;;;;;;5101023;28;20205;-82
2023/04/14 01:37:19;;;;;;;0.20;0.20;;;5.40;99.90;;;;;;5093677;28;20561;-78
2023/04/14 01:39:50;;;;;;;0.40;0.40;;;5.40;99.90;;;;;;5092474;28;20176;-80
2023/04/14 01:42:20;;;;;;;0.37;0.37;;;5.30;99.90;;;;;;5092823;28;20249;-77
2023/04/14 01:44:51;;;;;;;0.40;0.40;;;5.40;99.90;;;;;;5092480;28;20685;-78
2023/04/14 01:47:19;;;;;;;0.20;0.20;;;5.40;99.90;;;;;;5092687;28;20204;-79
2023/04/14 01:49:46;;;;;;;0.20;0.20;;;5.50;99.90;;;;;;5092396;28;20166;-79
2023/04/14 01:52:14;;;;;;;0.30;0.30;;;5.50;99.90;;;;;;5091110;28;20269;-79
2023/04/14 01:54:42;;;;;;;0.40;0.40;;;5.40;99.90;;;;;;5092163;28;20220;-79
2023/04/14 01:57:09;;;;;;;0.30;0.30;;;5.40;99.90;;;;;;5092399;28;20180;-76
2023/04/14 01:59:37;;;;;;;0.33;0.33;;;5.40;99.90;;;;;;5092241;28;20174;-76
2023/04/14 02:02:07;;;;;;;0.23;0.23;;;5.40;99.90;;;;;;5092274;28;20282;-77
2023/04/14 02:04:35;;;;;;;0.43;0.27;;;5.50;99.90;;;;;;5092286;28;20212;-78
2023/04/14 02:07:05;;;;;;;0.20;0.20;;;5.40;99.90;;;;;;5092193;28;20301;-80
2023/04/14 02:09:31;;;;;;;0.30;0.30;;;5.30;99.90;;;;;;5092087;28;20256;-77
2023/04/14 02:11:59;;;;;;;0.23;0.23;;;5.40;99.90;;;;;;5092364;28;20180;-78
2023/04/14 02:14:26;;;;;;;0.30;0.30;;;5.40;99.90;;;;;;5092139;28;20175;-78
2023/04/14 02:16:57;;;;;;;0.20;0.20;;;5.50;99.90;;;;;;5112107;28;20221;-78
2023/04/14 02:19:24;;;;;;;0.20;0.20;;;5.50;99.90;;;;;;5112277;28;20277;-78
2023/04/14 02:21:51;;;;;;;0.37;0.37;;;5.60;99.90;;;;;;5112268;28;20260;-75
2023/04/14 02:24:18;;;;;;;0.30;0.30;;;5.60;99.90;;;;;;5112526;28;20243;-80
2023/04/14 02:27:09;;;;;;;0.20;0.20;;;5.50;99.90;;;;;;5094035;28;20191;-79
2023/04/14 02:29:40;;;;;;;0.20;0.20;;;5.60;99.90;;;;;;5077119;28;20180;-77
2023/04/14 02:32:11;;;;;;;0.20;0.20;;;5.60;99.90;;;;;;5112307;28;20162;-76
2023/04/14 02:34:47;;;;;;;0.20;0.20;;;5.60;99.90;;;;;;5113643;28;20168;-78
2023/04/14 02:37:20;;;;;;;0.23;0.23;;;5.60;99.90;;;;;;5095038;28;20246;-79
2023/04/14 02:39:52;;;;;;;0.30;0.30;;;5.50;99.90;;;;;;5116422;28;20545;-77
2023/04/14 02:42:19;;;;;;;0.20;0.20;;;5.60;99.90;;;;;;5116506;28;20165;-77
2023/04/14 02:44:50;;;;;;;0.40;0.40;;;5.60;99.90;;;;;;5116279;28;20213;-78
2023/04/14 02:47:31;;;;;;;0.20;0.20;;;5.60;99.90;;;;;;5097666;28;20214;-78
2023/04/14 02:49:59;;;;;;;0.30;0.30;;;5.60;99.90;;;;;;5116118;28;20629;-77
2023/04/14 02:52:30;;;;;;;0.20;0.20;;;5.60;99.90;;;;;;5116147;28;20183;-77
2023/04/14 02:54:57;;;;;;;0.30;0.30;;;5.60;99.90;;;;;;5116035;28;20588;-81
2023/04/14 02:57:24;;;;;;;0.20;0.20;;;5.60;99.90;;;;;;5115871;28;20527;-79
2023/04/14 02:59:51;;;;;;;0.30;0.30;;;5.60;99.90;;;;;;5115962;28;20166;-78
2023/04/14 03:02:19;;;;;;;0.87;0.50;;;5.70;99.90;;;;;;5116097;28;20222;-78
2023/04/14 03:04:45;;;;;;;0.20;0.20;;;5.70;99.90;;;;;;5116081;28;20213;-77
2023/04/14 03:07:13;;;;;;;0.40;0.40;;;5.70;99.90;;;;;;5115908;28;20324;-76
2023/04/14 03:09:41;;;;;;;0.20;0.20;;;5.80;99.90;;;;;;5115741;28;20168;-76
2023/04/14 03:12:11;;;;;;;0.30;0.30;;;5.80;99.90;;;;;;5115962;28;20245;-76
2023/04/14 03:14:38;;;;;;;0.40;0.40;;;5.70;99.90;;;;;;5115679;28;20187;-78
2023/04/14 03:17:05;;;;;;;0.30;0.30;;;5.70;99.90;;;;;;5097402;28;20217;-78
2023/04/14 03:19:31;;;;;;;0.20;0.20;;;5.80;99.90;;;;;;5115540;28;20172;-76
2023/04/14 03:21:58;;;;;;;0.30;0.30;;;5.70;99.90;;;;;;5115876;28;20166;-78
2023/04/14 03:24:29;;;;;;;0.30;0.30;;;5.70;99.90;;;;;;5097670;28;20209;-77
2023/04/14 03:27:17;;;;;;;0.30;0.30;;;5.70;99.90;;;;;;5116754;28;20173;-82
2023/04/14 03:29:50;;;;;;;0.40;0.30;;;5.70;99.90;;;;;;5122221;28;20170;-76
2023/04/14 03:32:18;;;;;;;0.30;0.30;;;5.70;99.90;;;;;;5116088;28;20211;-80
2023/04/14 03:34:48;;;;;;;0.17;0.17;;;5.70;99.90;;;;;;5097389;28;20176;-77
2023/04/14 03:37:19;;;;;;;0.33;0.33;;;5.70;99.90;;;;;;5115599;28;20161;-77
2023/04/14 03:39:49;;;;;;;0.40;0.40;;;5.70;99.90;;;;;;5115535;28;20162;-77
2023/04/14 03:42:17;;;;;;;0.40;0.40;;;5.70;99.90;;;;;;5115594;28;20176;-78
2023/04/14 03:44:48;;;;;;;0.20;0.20;;;5.70;99.90;;;;;;5115472;28;20681;-76
2023/04/14 03:47:14;;;;;;;0.47;0.47;;;5.60;99.90;;;;;;5115454;28;20179;-77
2023/04/14 03:49:45;;;;;;;0.40;0.40;;;5.60;99.90;;;;;;5096380;28;20177;-77
2023/04/14 03:52:12;;;;;;;0.30;0.30;;;5.60;99.90;;;;;;5115764;28;20165;-77
2023/04/14 03:54:41;;;;;;;0.20;0.20;;;5.60;99.90;;;;;;5115290;28;20170;-79
2023/04/14 03:57:09;;;;;;;0.30;0.30;;;5.60;99.90;;;;;;5115023;28;20172;-79
2023/04/14 03:59:37;;;;;;;0.27;0.27;;;5.70;99.90;;;;;;5114901;28;20173;-77
2023/04/14 04:02:04;;;;;;;0.30;0.30;;;5.70;99.90;;;;;;5114950;28;20170;-78
2023/04/14 04:04:30;;;;;;;0.40;0.40;;;5.70;99.90;;;;;;5114880;28;20759;-78
2023/04/14 04:07:00;;;;;;;0.30;0.30;;;5.70;99.90;;;;;;5114945;28;20181;-76
2023/04/14 04:09:28;;;;;;;0.50;0.50;;;5.70;99.90;;;;;;5114534;28;20180;-78
2023/04/14 04:11:58;;;;;;;0.40;0.40;;;5.70;99.90;;;;;;5114513;28;20224;-76
2023/04/14 04:14:26;;;;;;;0.47;0.47;;;5.70;99.90;;;;;;5116148;28;20200;-77
2023/04/14 04:16:54;;;;;;;0.30;0.30;;;5.70;99.90;;;;;;5092783;28;20234;-77
2023/04/14 04:19:22;;;;;;;0.30;0.30;;;5.60;99.90;;;;;;5094023;28;20665;-77
2023/04/14 04:21:51;;;;;;;0.40;0.40;;;5.60;99.90;;;;;;5094159;28;20178;-79
2023/04/14 04:24:20;;;;;;;0.40;0.40;;;5.70;99.90;;;;;;5094019;28;20205;-78
2023/04/14 04:26:47;;;;;;;0.40;0.40;;;5.70;99.90;;;;;;5093961;28;20182;-77
2023/04/14 04:29:13;;;;;;;0.37;0.37;;;5.70;99.90;;;;;;5093817;28;20179;-80
2023/04/14 04:31:39;;;;;;;0.40;0.40;;;5.80;99.90;;;;;;5093898;28;20215;-77
2023/04/14 04:34:07;;;;;;;0.30;0.30;;;5.70;99.90;;;;;;5094161;28;20203;-77
2023/04/14 04:36:37;;;;;;;0.33;0.33;;;5.70;99.90;;;;;;5092538;28;20745;-77
2023/04/14 04:39:03;;;;;;;0.40;0.40;;;5.70;99.90;;;;;;5093444;28;20508;-78
2023/04/14 04:41:29;;;;;;;0.20;0.20;;;5.70;99.90;;;;;;5094055;28;20699;-76
2023/04/14 04:43:58;;;;;;;0.30;0.30;;;5.70;99.90;;;;;;5093912;28;20205;-76
2023/04/14 04:46:51;;;;;;;0.30;0.30;;;5.70;99.90;;;;;;5092443;28;20185;-76
2023/04/14 04:49:17;;;;;;;0.30;0.30;;;5.70;99.90;;;;;;5093200;28;20213;-77
2023/04/14 04:51:43;;;;;;;0.30;0.30;;;5.80;99.90;;;;;;5093611;28;20206;-78
2023/04/14 04:54:09;;;;;;;0.40;0.40;;;5.70;99.90;;;;;;5093687;28;20175;-77
2023/04/14 04:56:35;;;;;;;0.43;0.43;;;5.80;99.90;;;;;;5093808;28;20189;-80
2023/04/14 04:59:01;;;;;;;0.40;0.40;;;5.80;99.90;;;;;;5093047;28;20526;-76
2023/04/14 05:01:28;;;;;;;0.33;0.33;;;5.90;99.90;;;;;;5092643;28;20162;-76
2023/04/14 05:03:54;;;;;;;0.40;0.40;;;5.90;99.90;;;;;;5093333;28;20216;-79
2023/04/14 05:06:21;;;;;;;0.50;0.50;;;5.90;99.90;;;;;;5093402;28;20178;-80
2023/04/14 05:08:46;;;;;;;0.50;0.50;;;5.90;99.90;;;;;;5092901;28;20174;-77
2023/04/14 05:11:12;;;;;;;0.40;0.40;;;5.90;99.90;;;;;;5093183;28;20158;-77
2023/04/14 05:13:38;;;;;;;0.33;0.33;;;5.80;99.90;;;;;;5093213;28;20986;-79
2023/04/14 05:16:04;;;;;;;0.47;0.47;;;5.80;99.90;;;;;;5106446;28;20320;-78
2023/04/14 05:18:31;;;;;;;1.23;0.53;;;5.80;99.90;;;;;;5113142;28;20232;-77
2023/04/14 05:21:04;;;;;;;0.40;0.40;;;5.80;99.90;;;;;;5113733;28;20640;-76
2023/04/14 05:23:32;;;;;;;0.30;0.30;;;5.80;99.90;;;;;;5118900;28;20598;-77
2023/04/14 05:25:58;;;;;;;0.60;0.60;;;5.80;99.90;;;;;;5099197;28;20216;-77
2023/04/14 05:28:24;;;;;;;0.50;0.50;;;5.90;99.90;;;;;;5094675;28;20174;-76
2023/04/14 05:30:49;;;;;;;0.50;0.50;;;5.90;99.90;;;;;;5112906;28;20183;-78
2023/04/14 05:33:15;;;;;;;0.70;0.70;;;5.80;99.90;;;;;;5094727;28;20211;-79
2023/04/14 05:35:43;;;;;;;0.47;0.47;;;5.80;99.90;;;;;;5112725;28;20195;-76
2023/04/14 05:38:09;;;;;;;0.33;0.33;;;5.80;99.90;;;;;;5094453;28;20173;-77
2023/04/14 05:40:35;;;;;;;0.20;0.20;;;5.80;99.90;;;;;;5112525;28;20177;-76
2023/04/14 05:43:01;;;;;;;0.40;0.40;;;5.90;99.90;;;;;;5112975;28;20592;-79
2023/04/14 05:45:27;;;;;;;0.70;0.70;;;5.70;99.90;;;;;;5112639;28;20297;-80
2023/04/14 05:47:53;;;;;;;0.57;0.57;;;5.80;99.90;;;;;;5112555;28;20220;-77
2023/04/14 05:50:18;;;;;;;0.40;0.40;;;5.80;99.90;;;;;;5112302;28;20640;-79
2023/04/14 05:52:44;;;;;;;0.70;0.70;;;5.80;99.90;;;;;;5112623;28;20165;-80
2023/04/14 05:55:13;;;;;;;0.70;0.70;;;5.80;99.90;;;;;;5113017;28;20606;-78
2023/04/14 05:57:38;;;;;;;0.60;0.60;;;5.90;99.90;;;;;;5112564;28;20175;-78
2023/04/14 06:00:06;;;;;;;0.53;0.53;;;5.90;99.90;;;;;;5112087;28;20174;-80
2023/04/14 06:02:31;;;;;;;0.50;0.50;;;5.90;99.90;;;;;;5112516;28;20188;-77
2023/04/14 06:04:58;;;;;;;0.60;0.60;;;6.00;99.90;;;;;;5112174;28;20212;-79
2023/04/14 06:07:24;;;;;;;0.40;0.40;;;6.00;99.90;;;;;;5112488;28;20176;-78
2023/04/14 06:09:50;;;;;;;0.50;0.50;;;6.00;99.90;;;;;;5112164;28;20221;-77
2023/04/14 06:12:16;;;;;;;0.60;0.60;;;6.00;99.90;;;;;;5112106;28;20202;-77
2023/04/14 06:14:41;;;;;;;0.53;0.53;;;6.00;99.90;;;;;;5111552;28;20184;-79
2023/04/14 06:17:07;;;;;;;0.73;0.60;;;6.00;99.90;;;;;;5112284;28;20169;-77
2023/04/14 06:19:33;;;;;;;0.80;0.80;;;6.00;99.90;;;;;;5111951;28;20190;-75
2023/04/14 06:21:59;;;;;;;0.57;0.57;;;6.00;99.90;;;;;;5112329;28;20166;-77
2023/04/14 06:24:28;;;;;;;0.43;0.40;;;5.90;99.90;;;;;;5112115;28;20209;-79
2023/04/14 06:26:54;;;;;;;0.60;0.60;;;6.00;99.90;;;;;;5112188;28;20176;-75
2023/04/14 06:29:20;;;;;;;0.70;0.70;;;6.00;99.90;;;;;;5111706;28;20176;-78
2023/04/14 06:31:45;;;;;;;0.83;0.83;;;6.10;99.90;;;;;;5112067;28;20181;-77
2023/04/14 06:34:11;;;;;;;0.73;0.73;;;6.00;99.90;;;;;;5112234;28;20185;-76
2023/04/14 06:36:37;;;;;;;0.57;0.57;;;6.10;99.90;;;;;;5112444;28;20195;-76
2023/04/14 06:39:03;;;;;;;0.40;0.40;;;6.10;99.90;;;;;;5111991;28;20180;-77
2023/04/14 06:41:29;;;;;;;0.70;0.70;;;6.00;99.90;;;;;;5094192;28;20174;-80
2023/04/14 06:43:55;;;;;;;0.80;0.80;;;6.10;99.90;;;;;;5112276;28;20197;-77
2023/04/14 06:46:23;;;;;;;0.70;0.70;;;6.10;99.90;;;;;;5094185;28;20244;-76
2023/04/14 06:48:49;;;;;;;0.93;0.93;;;6.10;99.90;;;;;;5112372;28;20331;-78
2023/04/14 06:51:15;;;;;;;0.80;0.80;;;6.00;99.90;;;;;;5112082;28;20260;-77
2023/04/14 06:53:40;;;;;;;0.70;0.70;;;6.10;99.90;;;;;;5112254;28;20683;-78
2023/04/14 06:56:06;;;;;;;0.60;0.60;;;6.10;99.90;;;;;;5112267;28;20264;-78
2023/04/14 06:58:32;;;;;;;0.80;0.80;;;6.00;99.90;;;;;;5112864;28;20201;-78
2023/04/14 07:01:00;;;;;;;0.70;0.70;;;5.90;99.90;;;;;;5112285;28;20617;-77
2023/04/14 07:03:27;;;;;;;0.60;0.60;;;5.90;99.90;;;;;;5094289;28;20200;-75
2023/04/14 07:05:53;;;;;;;0.50;0.50;;;5.90;99.90;;;;;;5112250;28;20187;-77
2023/04/14 07:08:19;;;;;;;0.70;0.70;;;5.90;99.90;;;;;;5112182;28;20252;-78
2023/04/14 07:10:46;;;;;;;0.70;0.70;;;5.90;99.90;;;;;;5111717;28;20178;-76
2023/04/14 07:13:12;;;;;;;0.40;0.40;;;5.80;99.90;;;;;;5112350;28;20978;-76
2023/04/14 07:15:38;;;;;;;0.70;0.70;;;5.70;99.90;;;;;;5088820;28;20800;-78
2023/04/14 07:18:04;;;;;;;0.50;0.50;;;5.80;99.90;;;;;;5093739;28;20199;-78
2023/04/14 07:20:31;;;;;;;0.57;0.57;;;5.80;99.90;;;;;;5095121;28;20198;-78
2023/04/14 07:22:56;;;;;;;0.60;0.60;;;5.80;99.90;;;;;;5093286;28;20184;-82
2023/04/14 07:25:22;;;;;;;0.50;0.50;;;5.80;99.90;;;;;;5095790;28;20206;-76
2023/04/14 07:27:48;;;;;;;0.40;0.40;;;5.80;99.90;;;;;;5095795;28;20181;-77
2023/04/14 07:30:14;;;;;;;0.40;0.40;;;5.80;99.90;;;;;;5095657;28;20197;-78
2023/04/14 07:32:42;;;;;;;0.40;0.40;;;5.90;99.90;;;;;;5094353;28;20180;-78
2023/04/14 07:35:09;;;;;;;0.60;0.60;;;5.80;99.90;;;;;;5095564;28;20172;-80
2023/04/14 07:37:35;;;;;;;0.50;0.50;;;5.80;99.90;;;;;;5095448;28;20266;-77
2023/04/14 07:40:02;;;;;;;0.40;0.40;;;5.80;99.90;;;;;;5093506;28;20613;-82
2023/04/14 07:42:28;;;;;;;0.73;0.73;;;5.80;99.90;;;;;;5093867;28;20224;-79
2023/04/14 07:44:54;;;;;;;0.37;0.37;;;5.90;99.90;;;;;;5093786;28;20747;-79
2023/04/14 07:47:20;;;;;;;1.03;0.67;;;6.00;99.90;;;;;;5094877;28;20171;-77
2023/04/14 07:49:45;;;;;;;0.90;0.60;;;6.10;99.90;;;;;;5094865;28;20186;-79
2023/04/14 07:52:11;;;;;;;0.57;0.57;;;6.20;99.90;;;;;;5094590;28;20194;-76
2023/04/14 07:54:37;;;;;;;0.67;0.67;;;6.20;99.90;;;;;;5095071;28;20202;-78
2023/04/14 07:57:03;;;;;;;0.40;0.40;;;6.20;99.90;;;;;;5094707;28;20684;-85
2023/04/14 07:59:30;;;;;;;0.33;0.33;;;6.20;99.90;;;;;;5094666;28;20174;-80
2023/04/14 08:01:56;;;;;;;0.47;0.47;;;6.20;99.90;;;;;;5094987;28;20532;-76
2023/04/14 08:04:22;;;;;;;0.30;0.30;;;6.10;99.90;;;;;;5094774;28;20206;-82
2023/04/14 08:06:47;;;;;;;0.30;0.30;;;6.10;99.90;;;;;;5094292;28;20213;-77
2023/04/14 08:09:13;;;;;;;0.60;0.60;;;6.20;99.90;;;;;;5094274;28;20187;-79
2023/04/14 08:11:40;;;;;;;0.50;0.50;;;6.20;99.90;;;;;;5093001;28;20212;-80
2023/04/14 08:14:05;;;;;;;0.60;0.60;;;6.30;99.90;;;;;;5093010;28;20186;-76
2023/04/14 08:16:35;;;;;;;1.27;0.63;;;6.30;99.90;;;;;;5109560;28;20712;-76
2023/04/14 08:19:02;;;;;;;0.80;0.80;;;6.20;99.90;;;;;;5115313;28;20862;-77
2023/04/14 08:21:28;;;;;;;0.67;0.67;;;6.20;99.90;;;;;;5115190;28;20226;-82
2023/04/14 08:23:53;;;;;;;0.90;0.90;;;6.20;99.90;;;;;;5096101;28;20572;-80
2023/04/14 08:26:20;;;;;;;1.40;0.97;;;6.20;99.90;;;;;;5114490;28;20205;-78
2023/04/14 08:28:45;;;;;;;0.90;0.90;;;6.30;99.90;;;;;;5114723;28;20173;-79
2023/04/14 08:31:11;;;;;;;1.63;1.10;;;6.20;99.90;;;;;;5096316;28;20183;-76
2023/04/14 08:33:37;;;;;;;1.63;1.20;;;6.20;99.90;;;;;;5114642;28;20257;-78
2023/04/14 08:36:03;;;;;;;1.00;1.00;;;6.20;99.90;;;;;;5096350;28;20173;-77
2023/04/14 08:38:29;;;;;;;1.00;1.00;;;6.30;99.90;;;;;;5095795;28;20170;-76
2023/04/14 08:40:56;;;;;;;0.90;0.90;;;6.30;99.90;;;;;;5114074;28;20700;-79
2023/04/14 08:43:22;;;;;;;0.60;0.60;;;6.20;99.90;;;;;;5114200;28;20208;-78
2023/04/14 08:45:50;;;;;;;0.70;0.70;;;6.30;99.90;;;;;;5114396;28;20209;-76
2023/04/14 08:48:19;;;;;;;0.57;0.57;;;6.30;99.90;;;;;;5096232;28;20180;-78
2023/04/14 08:51:01;;;;;;;0.60;0.60;;;6.40;99.90;;;;;;5113708;28;20180;-78
2023/04/14 08:53:28;;;;;;;0.57;0.57;;;6.30;99.90;;;;;;5113789;28;20152;-80
2023/04/14 08:55:55;;;;;;;0.50;0.50;;;6.40;99.90;;;;;;5113798;28;20179;-78
2023/04/14 08:58:21;;;;;;;0.50;0.50;;;6.40;99.90;;;;;;5095434;28;20173;-77
2023/04/14 09:00:47;;;;;;;0.70;0.70;;;6.40;99.90;;;;;;5113933;28;20166;-81
2023/04/14 09:03:13;;;;;;;0.37;0.37;;;6.40;99.90;;;;;;5094592;28;20318;-85
2023/04/14 09:05:40;;;;;;;0.57;0.57;;;6.50;99.90;;;;;;5113978;28;20201;-81
2023/04/14 09:08:06;;;;;;;0.60;0.60;;;6.70;99.90;;;;;;5096416;28;20740;-82
2023/04/14 09:10:34;;;;;;;0.70;0.70;;;6.80;99.90;;;;;;5114919;28;20174;-80
2023/04/14 09:13:00;;;;;;;0.60;0.60;;;7.00;99.90;;;;;;5116294;28;20650;-82
2023/04/14 09:15:27;;;;;;;1.13;0.60;;;7.00;99.90;;;;;;5116622;28;20250;-81
2023/04/14 09:17:54;;;;;;;0.70;0.70;;;6.90;99.90;;;;;;5115995;28;20197;-77
2023/04/14 09:20:20;;;;;;;0.70;0.70;;;7.00;99.90;;;;;;5115132;28;20176;-79
2023/04/14 09:22:46;;;;;;;0.30;0.30;;;7.00;99.90;;;;;;5114734;28;20170;-82
2023/04/14 09:25:14;;;;;;;0.50;0.50;;;6.90;99.90;;;;;;5114546;28;20204;-76
2023/04/14 09:27:41;;;;;;;0.50;0.50;;;7.10;99.90;;;;;;5078214;28;20182;-78
2023/04/14 09:30:08;;;;;;;0.80;0.80;;;7.20;99.90;;;;;;5113616;28;20177;-80
2023/04/14 09:32:35;;;;;;;0.83;0.83;;;7.30;99.90;;;;;;5113206;28;20180;-78
2023/04/14 09:35:01;;;;;;;0.53;0.53;;;7.40;99.90;;;;;;5113583;28;20201;-77
2023/04/14 09:37:40;;;;;;;0.70;0.70;;;7.30;99.90;;;;;;5113454;28;20605;-78
2023/04/14 09:40:07;;;;;;;0.63;0.63;;;7.30;99.90;;;;;;5094894;28;20633;-75
2023/04/14 09:42:41;;;;;;;0.80;0.80;;;7.40;99.90;;;;;;5094543;28;20176;-75
2023/04/14 09:45:08;;;;;;;0.80;0.80;;;7.40;99.90;;;;;;5113178;28;20230;-77
2023/04/14 09:47:34;;;;;;;0.67;0.67;;;7.40;99.90;;;;;;5112610;28;20208;-78
2023/04/14 09:50:02;;;;;;;0.57;0.57;;;7.60;99.90;;;;;;5114629;28;20194;-76
2023/04/14 09:52:43;;;;;;;0.73;0.73;;;7.60;99.90;;;;;;5113575;28;20525;-77
2023/04/14 09:55:11;;;;;;;0.70;0.70;;;7.70;99.90;;;;;;5113058;28;20184;-80
2023/04/14 09:57:40;;;;;;;0.43;0.43;;;7.70;99.90;;;;;;5113416;28;20897;-82
2023/04/14 10:00:15;;;;;;;0.70;0.70;;;7.60;99.90;;;;;;5113806;28;20302;-76
2023/04/14 10:02:56;;;;;;;0.70;0.70;;;7.70;99.90;;;;;;5093698;28;20172;-78
2023/04/14 10:05:26;;;;;;;0.70;0.70;;;7.80;99.90;;;;;;5111595;28;20225;-77
2023/04/14 10:07:52;;;;;;;0.90;0.90;;;7.80;99.90;;;;;;5112796;28;20306;-76
2023/04/14 10:10:18;;;;;;;0.63;0.63;;;7.90;99.90;;;;;;5112996;28;20688;-81
2023/04/14 10:12:45;;;;;;;1.00;1.00;;;7.90;99.90;;;;;;5113165;28;20661;-79
2023/04/14 10:15:11;;;;;;;0.70;0.70;;;7.90;99.90;;;;;;5112505;28;20228;-75
2023/04/14 10:17:38;;;;;;;0.60;0.60;;;7.80;99.90;;;;;;5112638;28;20591;-78
2023/04/14 10:20:05;;;;;;;0.60;0.60;;;7.90;99.90;;;;;;5112730;28;20202;-76
2023/04/14 10:22:31;;;;;;;0.83;0.80;;;7.90;99.90;;;;;;5112639;28;20244;-76
2023/04/14 10:25:01;;;;;;;0.90;0.90;;;8.00;99.90;;;;;;5111947;28;20291;-76
2023/04/14 10:27:29;;;;;;;0.60;0.60;;;8.10;99.90;;;;;;5112522;28;20162;-75
2023/04/14 10:29:56;;;;;;;0.70;0.70;;;8.10;99.90;;;;;;5112277;28;20628;-79
2023/04/14 10:32:24;;;;;;;0.70;0.70;;;8.20;99.90;;;;;;5094286;28;20199;-77
2023/04/14 10:35:05;;;;;;;0.50;0.50;;;8.20;99.90;;;;;;5094022;28;20179;-76
2023/04/14 10:37:32;;;;;;;0.80;0.80;;;8.30;99.90;;;;;;5112363;28;20158;-76
2023/04/14 10:39:59;;;;;;;1.00;0.80;;;8.40;99.90;;;;;;5112426;28;20177;-80
2023/04/14 10:42:27;;;;;;;0.70;0.70;;;8.50;99.90;;;;;;5112464;28;20254;-78
2023/04/14 10:45:07;;;;;;;0.70;0.70;;;8.50;99.90;;;;;;5112260;28;20245;-77
2023/04/14 10:47:34;;;;;;;0.80;0.80;;;8.50;99.90;;;;;;5093855;28;20195;-79
2023/04/14 10:50:14;;;;;;;0.80;0.80;;;8.50;99.90;;;;;;5112200;28;20169;-75
2023/04/14 10:52:57;;;;;;;1.17;0.93;;;8.60;99.90;;;;;;5112345;28;20159;-78
2023/04/14 10:55:27;;;;;;;0.80;0.80;;;8.80;99.90;;;;;;5112146;28;20245;-76
2023/04/14 10:58:03;;;;;;;0.70;0.70;;;8.80;99.90;;;;;;5112189;28;20161;-77
2023/04/14 11:00:32;;;;;;;1.50;0.70;;;8.80;99.90;;;;;;5116443;28;20175;-81
2023/04/14 11:03:09;;;;;;;0.50;0.50;;;8.70;99.90;;;;;;5118235;28;20893;-81
2023/04/14 11:05:40;;;;;;;0.63;0.50;;;8.70;99.90;;;;;;5123454;28;20676;-82
2023/04/14 11:08:23;;;;;;;0.93;0.60;;;8.70;99.90;;;;;;5121389;28;20688;-81
2023/04/14 11:10:58;;;;;;;0.70;0.70;;;8.50;99.90;;;;;;5117088;28;20168;-80
2023/04/14 11:13:24;;;;;;;0.47;0.47;;;8.40;99.90;;;;;;5116557;28;20614;-80
2023/04/14 11:16:07;;;;;;;0.60;0.60;;;8.40;99.90;;;;;;5116443;28;20303;-76
2023/04/14 11:18:36;;;;;;;0.60;0.60;;;8.50;99.90;;;;;;5097559;28;20586;-76
2023/04/14 11:21:05;;;;;;;0.70;0.70;;;8.40;99.90;;;;;;5117298;28;20240;-78
2023/04/14 11:23:31;;;;;;;0.57;0.57;;;8.40;99.90;;;;;;5117763;28;20167;-78
2023/04/14 11:25:57;;;;;;;0.80;0.80;;;8.50;99.90;;;;;;5115860;28;20204;-77
2023/04/14 11:28:34;;;;;;;0.73;0.73;;;8.50;99.90;;;;;;5116035;28;20182;-76
2023/04/14 11:31:02;;;;;;;0.70;0.70;;;8.60;99.90;;;;;;5115563;28;20702;-78
2023/04/14 11:33:36;;;;;;;0.60;0.60;;;8.60;99.90;;;;;;5117684;28;20217;-78
2023/04/14 11:36:04;;;;;;;0.70;0.70;;;8.80;99.90;;;;;;5097856;28;20267;-80
2023/04/14 11:38:31;;;;;;;0.70;0.70;;;8.80;99.90;;;;;;5115730;28;20180;-80
2023/04/14 11:40:57;;;;;;;0.40;0.40;;;8.80;99.90;;;;;;5096741;28;20182;-77
2023/04/14 11:43:23;;;;;;;0.40;0.40;;;8.80;99.90;;;;;;5115584;28;20168;-78
2023/04/14 11:45:53;;;;;;;0.67;0.57;;;8.80;99.90;;;;;;5115280;28;20239;-76
2023/04/14 11:48:19;;;;;;;0.70;0.70;;;8.60;99.90;;;;;;5115457;28;20182;-76
2023/04/14 11:50:47;;;;;;;0.50;0.50;;;8.60;99.90;;;;;;5115481;28;20180;-77
2023/04/14 11:53:16;;;;;;;0.60;0.60;;;8.80;99.90;;;;;;5115103;28;20175;-79
2023/04/14 11:55:51;;;;;;;0.83;0.83;;;8.80;99.90;;;;;;5115130;28;20670;-77
2023/04/14 11:58:29;;;;;;;0.70;0.70;;;8.60;99.90;;;;;;5112990;28;20165;-77
2023/04/14 12:00:58;;;;;;;0.83;0.83;;;8.70;99.90;;;;;;5096760;28;20639;-81
2023/04/14 12:03:28;;;;;;;0.30;0.30;;;8.90;99.90;;;;;;5115077;28;20192;-83
2023/04/14 12:06:01;;;;;;;0.60;0.60;;;8.80;99.90;;;;;;5114906;28;20209;-80
2023/04/14 12:08:31;;;;;;;0.47;0.47;;;8.70;99.90;;;;;;5115178;28;20285;-82
2023/04/14 12:10:57;;;;;;;0.60;0.60;;;8.70;99.90;;;;;;5116598;28;20174;-84
2023/04/14 12:13:23;;;;;;;0.50;0.50;;;8.50;99.90;;;;;;5115053;28;20183;-78
2023/04/14 12:15:49;;;;;;;0.60;0.60;;;8.50;99.90;;;;;;5114524;28;20280;-76
2023/04/14 12:18:16;;;;;;;0.50;0.50;;;8.50;99.90;;;;;;5114608;28;20297;-77
2023/04/14 12:20:52;;;;;;;0.73;0.73;;;8.60;99.90;;;;;;5115102;28;20220;-77
2023/04/14 12:23:18;;;;;;;0.60;0.60;;;8.60;99.90;;;;;;5114782;28;20183;-80
2023/04/14 12:25:44;;;;;;;0.47;0.47;;;9.20;99.90;;;;;;5114237;28;20250;-80
2023/04/14 12:28:16;;;;;;;0.50;0.50;;;8.50;99.90;;;;;;5114514;28;20582;-77
2023/04/14 12:30:51;;;;;;;0.57;0.57;;;8.70;99.90;;;;;;5114129;28;20543;-79
2023/04/14 12:33:17;;;;;;;0.40;0.40;;;8.80;99.90;;;;;;5114542;28;20213;-76
2023/04/14 12:35:43;;;;;;;0.70;0.67;;;8.80;99.90;;;;;;5096082;28;20710;-81
2023/04/14 12:38:13;;;;;;;0.40;0.40;;;8.90;99.90;;;;;;5114461;28;20173;-82
2023/04/14 12:40:44;;;;;;;0.40;0.40;;;9.00;99.90;;;;;;5115866;28;20647;-83
2023/04/14 12:43:11;;;;;;;0.50;0.50;;;9.00;99.90;;;;;;5114699;28;20701;-83
2023/04/14 12:45:47;;;;;;;0.30;0.30;;;9.10;99.90;;;;;;5114122;28;20205;-78
2023/04/14 12:48:16;;;;;;;0.60;0.60;;;9.00;99.90;;;;;;5096249;28;20179;-80
2023/04/14 12:50:42;;;;;;;0.60;0.60;;;9.10;99.90;;;;;;5113923;28;20217;-78
2023/04/14 12:53:24;;;;;;;0.50;0.50;;;9.10;99.90;;;;;;5115206;28;20174;-78
2023/04/14 12:56:12;;;;;;;0.73;0.73;;;9.20;99.90;;;;;;5115124;28;20644;-79
2023/04/14 12:58:40;;;;;;;0.60;0.60;;;9.30;99.90;;;;;;5114942;28;20221;-76
2023/04/14 13:01:07;;;;;;;0.30;0.30;;;9.20;99.90;;;;;;5116712;28;20179;-81
2023/04/14 13:03:50;;;;;;;0.50;0.50;;;9.30;99.90;;;;;;5120137;28;20171;-77
2023/04/14 13:06:17;;;;;;;0.67;0.67;;;9.40;99.90;;;;;;5117447;28;20177;-78